Time;durP1;ratioP1;P1;durP2;ratioP2;P2;SDS_P1;SDS_P2;PMS_P1;PMS_P2;Temp;Humidity;BMP_temperature;BMP_pressure;BME280_temperature;BME280_humidity;BME280_pressure;Samples;Min_cycle;Max_cycle;Signal;HPM_P1;HPM_P2
2021/05/22 00:00:05;;;;;;;7.25;2.40;;;;;;;10.09;70.26;99728.84;1040327;28;20049;-84
2021/05/22 00:00:37;;;;;;;7.55;2.22;;;;;;;10.09;69.96;99729.69;1039802;28;20041;-80
2021/05/22 00:01:08;;;;;;;3.25;1.70;;;;;;;10.09;70.37;99728.84;1036800;28;20054;-81
2021/05/22 00:01:40;;;;;;;2.08;1.67;;;;;;;10.04;70.15;99731.47;1036946;28;20054;-83
2021/05/22 00:02:12;;;;;;;2.30;1.63;;;;;;;10.09;69.85;99731.44;1040050;28;20042;-81
2021/05/22 00:02:43;;;;;;;5.43;1.85;;;;;;;10.07;69.69;99725.41;1039796;28;20056;-82
2021/05/22 00:03:15;;;;;;;5.18;2.10;;;;;;;10.06;70.01;99732.31;1036049;28;20046;-81
2021/05/22 00:03:47;;;;;;;6.07;2.08;;;;;;;10.09;70.14;99741.75;1040335;28;20049;-81
2021/05/22 00:04:18;;;;;;;6.43;2.95;;;;;;;10.04;70.50;99731.47;1043917;28;20154;-81
2021/05/22 00:04:50;;;;;;;4.57;1.60;;;;;;;10.01;70.66;99723.69;1039953;28;20513;-82
2021/05/22 00:05:22;;;;;;;5.68;2.13;;;;;;;10.03;70.64;99731.44;1040491;28;20231;-82
2021/05/22 00:05:53;;;;;;;8.93;2.42;;;;;;;10.05;70.99;99730.59;1039700;28;20163;-82
2021/05/22 00:06:25;;;;;;;7.95;2.28;;;;;;;10.03;70.76;99734.88;1036393;28;20140;-82
2021/05/22 00:06:57;;;;;;;7.53;1.83;;;;;;;10.05;70.60;99727.16;1040367;28;20187;-84
2021/05/22 00:07:28;;;;;;;6.40;1.83;;;;;;;10.05;70.37;99732.31;1040209;28;20077;-82
2021/05/22 00:08:00;;;;;;;5.20;2.33;;;;;;;10.04;70.39;99728.88;1043725;28;20456;-83
2021/05/22 00:08:31;;;;;;;6.75;2.45;;;;;;;10.05;70.32;99727.16;1040095;28;20590;-83
2021/05/22 00:09:06;;;;;;;6.38;2.42;;;;;;;10.01;70.63;99715.94;1039962;28;20060;-80
2021/05/22 00:09:37;;;;;;;5.72;2.05;;;;;;;10.05;70.50;99721.97;1036851;28;20056;-81
2021/05/22 00:10:13;;;;;;;6.38;2.00;;;;;;;10.03;70.86;99729.72;1040598;28;20057;-82
2021/05/22 00:10:44;;;;;;;6.90;2.58;;;;;;;10.01;71.03;99715.09;1039974;28;20424;-82
2021/05/22 00:11:16;;;;;;;5.60;2.05;;;;;;;10.02;71.27;99717.66;1036770;28;20421;-82
2021/05/22 00:11:48;;;;;;;3.40;1.90;;;;;;;9.96;71.14;99715.09;1036801;28;20057;-83
2021/05/22 00:12:20;;;;;;;4.60;2.17;;;;;;;10.02;71.02;99724.56;1036196;28;20050;-83
2021/05/22 00:12:51;;;;;;;5.85;2.55;;;;;;;10.02;70.88;99715.06;1043315;28;20060;-83
2021/05/22 00:13:23;;;;;;;4.78;1.85;;;;;;;10.02;70.48;99717.66;1043801;28;20100;-83
2021/05/22 00:13:54;;;;;;;4.55;2.05;;;;;;;10.02;70.71;99717.66;1039985;28;20077;-81
2021/05/22 00:14:26;;;;;;;3.90;2.00;;;;;;;10.01;70.59;99713.34;1040075;28;20050;-80
2021/05/22 00:14:58;;;;;;;5.10;1.92;;;;;;;10.01;70.46;99709.91;1040046;28;20054;-82
2021/05/22 00:15:30;;;;;;;5.68;2.08;;;;;;;10.03;70.64;99715.94;1040476;28;20460;-81
2021/05/22 00:16:04;;;;;;;6.68;2.10;;;;;;;10.03;71.04;99718.50;1040640;28;20449;-82
2021/05/22 00:16:36;;;;;;;7.53;2.75;;;;;;;10.03;70.29;99709.03;1040789;28;20199;-80
2021/05/22 00:17:08;;;;;;;7.32;2.38;;;;;;;10.03;70.85;99713.34;1043880;28;20530;-81
2021/05/22 00:17:39;;;;;;;9.18;2.80;;;;;;;9.99;70.93;99722.00;1043883;28;20511;-82
2021/05/22 00:18:11;;;;;;;4.05;2.10;;;;;;;10.02;71.14;99722.81;1044610;28;20045;-82
2021/05/22 00:18:43;;;;;;;8.27;2.60;;;;;;;10.02;70.94;99719.38;1043959;28;20049;-81
2021/05/22 00:19:17;;;;;;;5.40;2.03;;;;;;;10.04;70.60;99715.06;1039854;28;20133;-82
2021/05/22 00:19:48;;;;;;;3.95;1.80;;;;;;;10.03;70.76;99710.75;1040687;28;20582;-80
2021/05/22 00:20:20;;;;;;;5.38;1.60;;;;;;;10.00;70.82;99706.47;1040808;28;20493;-83
2021/05/22 00:20:53;;;;;;;7.07;2.03;;;;;;;10.00;70.97;99708.19;1039689;28;20075;-83
2021/05/22 00:21:25;;;;;;;5.43;2.22;;;;;;;9.99;71.02;99709.94;1036521;28;20099;-81
2021/05/22 00:21:56;;;;;;;7.20;2.03;;;;;;;9.98;70.77;99712.50;1039693;28;20057;-82
2021/05/22 00:22:28;;;;;;;7.70;2.55;;;;;;;9.98;70.45;99707.31;1038906;28;20173;-84
2021/05/22 00:23:01;;;;;;;4.28;1.98;;;;;;;9.98;70.50;99694.41;1039927;28;20045;-84
2021/05/22 00:23:32;;;;;;;4.72;2.08;;;;;;;10.00;70.35;99693.56;1040460;28;20140;-81
2021/05/22 00:24:05;;;;;;;5.55;2.63;;;;;;;9.95;70.93;99703.03;1039571;28;20049;-82
2021/05/22 00:24:36;;;;;;;4.13;2.10;;;;;;;9.99;70.82;99709.06;1035907;28;20060;-82
2021/05/22 00:25:12;;;;;;;7.32;2.88;;;;;;;9.98;70.92;99707.31;1036323;28;20514;-81
2021/05/22 00:25:44;;;;;;;4.88;2.22;;;;;;;10.00;70.71;99703.03;1036943;28;20045;-81
2021/05/22 00:26:15;;;;;;;5.28;2.20;;;;;;;9.99;71.17;99701.31;1037065;28;20057;-81
2021/05/22 00:26:47;;;;;;;4.85;2.80;;;;;;;10.01;70.25;99702.16;1041197;28;20464;-82
2021/05/22 00:27:19;;;;;;;6.70;2.50;;;;;;;9.98;70.60;99704.75;1043165;28;20044;-84
2021/05/22 00:27:50;;;;;;;5.88;2.30;;;;;;;9.97;70.68;99696.13;1043910;28;20182;-83
2021/05/22 00:28:22;;;;;;;5.88;2.35;;;;;;;10.03;70.34;99696.13;1039927;28;20136;-83
2021/05/22 00:28:54;;;;;;;7.05;2.85;;;;;;;9.99;69.97;99680.66;1042363;28;20061;-83
2021/05/22 00:29:25;;;;;;;7.40;2.25;;;;;;;10.04;69.72;99691.81;1048013;28;20044;-83
2021/05/22 00:29:57;;;;;;;8.63;2.47;;;;;;;9.99;70.12;99685.81;1048844;28;20269;-83
2021/05/22 00:30:29;;;;;;;6.22;2.53;;;;;;;9.99;69.90;99680.66;1046309;28;20045;-82
2021/05/22 00:31:01;;;;;;;7.07;3.13;;;;;;;10.02;70.28;99703.88;1039878;28;20045;-83
2021/05/22 00:31:36;;;;;;;6.05;2.47;;;;;;;9.97;70.68;99682.34;1039846;28;20061;-84
2021/05/22 00:32:07;;;;;;;4.88;2.22;;;;;;;10.02;70.00;99686.66;1041730;28;20099;-82
2021/05/22 00:32:40;;;;;;;7.22;2.40;;;;;;;10.01;70.27;99684.09;1043826;28;20223;-81
2021/05/22 00:33:11;;;;;;;3.25;1.98;;;;;;;10.02;70.18;99685.78;1039751;28;20562;-81
2021/05/22 00:33:43;;;;;;;4.15;2.28;;;;;;;10.02;69.89;99691.81;1041513;28;20049;-81
2021/05/22 00:34:14;;;;;;;6.20;3.08;;;;;;;10.02;70.17;99688.38;1038319;28;20069;-82
2021/05/22 00:34:46;;;;;;;6.50;1.95;;;;;;;10.03;70.35;99687.50;1036371;28;20132;-83
2021/05/22 00:35:17;;;;;;;6.40;2.20;;;;;;;10.05;69.57;99685.81;1041215;28;20049;-81
2021/05/22 00:35:50;;;;;;;5.63;2.05;;;;;;;10.03;70.64;99685.78;1044532;28;20110;-82
2021/05/22 00:36:21;;;;;;;5.78;2.55;;;;;;;10.00;69.94;99682.38;1044054;28;20139;-83
2021/05/22 00:36:53;;;;;;;6.55;2.03;;;;;;;10.02;70.06;99683.22;1043164;28;20131;-83
2021/05/22 00:37:24;;;;;;;7.28;2.15;;;;;;;10.01;69.82;99681.50;1046160;28;20147;-84
2021/05/22 00:37:56;;;;;;;5.35;2.13;;;;;;;10.01;69.61;99676.31;1047961;28;20172;-80
2021/05/22 00:38:28;;;;;;;6.30;2.05;;;;;;;10.06;69.13;99682.34;1048039;28;20056;-83
2021/05/22 00:38:59;;;;;;;7.68;2.25;;;;;;;10.05;68.90;99672.88;1044180;28;20128;-84
2021/05/22 00:39:31;;;;;;;6.32;2.45;;;;;;;10.05;69.46;99678.06;1043895;28;20060;-82
2021/05/22 00:40:04;;;;;;;11.50;3.00;;;;;;;10.03;69.35;99667.69;1040364;28;20054;-83
2021/05/22 00:40:36;;;;;;;7.30;2.65;;;;;;;10.06;69.34;99672.00;1044050;28;20559;-82
2021/05/22 00:41:08;;;;;;;10.25;2.95;;;;;;;10.05;69.51;99675.47;1040995;28;20049;-83
2021/05/22 00:41:39;;;;;;;5.20;2.28;;;;;;;10.05;69.10;99676.31;1045419;28;20135;-81
2021/05/22 00:42:11;;;;;;;8.25;2.20;;;;;;;10.05;69.43;99666.00;1044575;28;20049;-84
2021/05/22 00:42:44;;;;;;;8.88;2.55;;;;;;;10.08;69.15;99686.63;1044719;28;20105;-83
2021/05/22 00:43:15;;;;;;;5.10;2.08;;;;;;;10.06;69.25;99670.28;1040527;28;20060;-82
2021/05/22 00:43:47;;;;;;;7.60;2.45;;;;;;;10.11;68.72;99669.44;1040628;28;20041;-82
2021/05/22 00:44:18;;;;;;;7.03;2.35;;;;;;;10.05;69.33;99671.16;1040753;28;20053;-82
2021/05/22 00:45:14;;;;;;;4.47;2.13;;;;;;;10.07;69.34;99674.59;1040522;28;20184;-81
2021/05/22 00:45:47;;;;;;;12.68;2.38;;;;;;;10.08;69.14;99678.03;1040679;28;20108;-84
2021/05/22 00:46:18;;;;;;;6.05;2.00;;;;;;;10.11;68.09;99672.00;1040604;28;20064;-81
2021/05/22 00:46:50;;;;;;;5.53;2.63;;;;;;;10.11;68.59;99672.00;1047592;28;20553;-83
2021/05/22 00:47:21;;;;;;;5.45;2.13;;;;;;;10.04;69.15;99684.06;1042895;28;20436;-81
2021/05/22 00:47:57;;;;;;;6.35;2.13;;;;;;;10.07;68.98;99668.56;1036582;28;20050;-83
2021/05/22 00:48:28;;;;;;;8.70;2.28;;;;;;;10.08;68.47;99675.44;1040583;28;20128;-82
2021/05/22 00:49:00;;;;;;;4.93;1.83;;;;;;;10.12;67.88;99672.00;1042070;28;20061;-81
2021/05/22 00:49:32;;;;;;;4.80;2.22;;;;;;;10.11;68.34;99670.28;1045955;28;20064;-84
2021/05/22 00:50:07;;;;;;;6.13;2.60;;;;;;;10.10;67.91;99671.16;1044590;28;20136;-83
2021/05/22 00:50:41;;;;;;;7.70;1.80;;;;;;;10.08;68.32;99660.78;1041809;28;20257;-83
2021/05/22 00:51:13;;;;;;;8.40;2.75;;;;;;;10.07;68.93;99673.72;1044665;28;20397;-83
2021/05/22 00:51:44;;;;;;;6.70;2.25;;;;;;;10.08;68.72;99655.63;1040226;28;20536;-82
2021/05/22 00:52:16;;;;;;;5.90;2.60;;;;;;;10.05;68.46;99668.56;1041162;28;20136;-83
2021/05/22 00:52:48;;;;;;;5.35;2.42;;;;;;;10.07;68.62;99674.59;1040682;28;20128;-84
2021/05/22 00:53:20;;;;;;;6.90;2.22;;;;;;;10.03;68.61;99666.84;1043642;28;20148;-82
2021/05/22 00:53:53;;;;;;;8.40;2.45;;;;;;;10.08;68.47;99672.88;1040689;28;20052;-81
2021/05/22 00:54:24;;;;;;;6.28;2.20;;;;;;;10.07;68.46;99672.00;1041124;28;20054;-81
2021/05/22 00:54:56;;;;;;;6.65;2.30;;;;;;;10.06;68.06;99666.84;1038240;28;20054;-84
2021/05/22 00:55:28;;;;;;;6.32;2.30;;;;;;;10.07;68.90;99674.59;1037036;28;20053;-82
2021/05/22 00:56:01;;;;;;;5.60;2.03;;;;;;;10.06;68.75;99669.44;1040728;28;20057;-82
2021/05/22 00:56:32;;;;;;;5.40;2.17;;;;;;;10.08;68.23;99655.63;1043266;28;20052;-85
2021/05/22 00:57:04;;;;;;;5.88;2.35;;;;;;;10.04;68.97;99672.03;1041471;28;20523;-84
2021/05/22 00:57:40;;;;;;;9.15;2.50;;;;;;;10.07;68.03;99656.50;1041470;28;20176;-83
2021/05/22 00:58:11;;;;;;;7.30;2.42;;;;;;;10.04;68.18;99653.06;1039691;28;20049;-81
2021/05/22 00:58:43;;;;;;;4.63;2.05;;;;;;;10.03;68.86;99654.78;1040428;28;20107;-80
2021/05/22 00:59:16;;;;;;;9.73;2.15;;;;;;;10.02;68.40;99649.63;1040879;28;20405;-82
2021/05/22 00:59:47;;;;;;;7.13;2.13;;;;;;;10.04;68.13;99658.22;1043321;28;20056;-82
2021/05/22 01:00:29;;;;;;;3.88;1.67;;;;;;;10.00;68.19;99631.56;1040702;28;20171;-81
2021/05/22 01:01:00;;;;;;;9.48;2.17;;;;;;;10.04;68.16;99660.81;1040677;28;20175;-83
2021/05/22 01:01:32;;;;;;;6.55;1.92;;;;;;;10.03;68.43;99661.66;1042325;28;20089;-83
2021/05/22 01:02:03;;;;;;;4.88;1.83;;;;;;;10.07;67.56;99659.09;1044646;28;20535;-83
2021/05/22 01:02:35;;;;;;;7.43;2.22;;;;;;;10.06;67.91;99656.50;1040818;28;20045;-81
2021/05/22 01:03:16;;;;;;;8.32;2.53;;;;;;;10.02;67.72;99665.97;1037240;28;20050;-82
2021/05/22 01:03:54;;;;;;;4.50;1.67;;;;;;;10.05;67.91;99663.41;1038368;28;20501;-83
2021/05/22 01:04:25;;;;;;;7.53;2.40;;;;;;;10.03;68.29;99661.66;1043084;28;20131;-83
2021/05/22 01:04:57;;;;;;;5.30;2.22;;;;;;;9.99;68.83;99659.97;1044687;28;20531;-81
2021/05/22 01:05:42;;;;;;;12.55;3.05;;;;;;;10.04;68.64;99656.53;1044688;28;20061;-85
2021/05/22 01:06:25;;;;;;;8.00;2.00;;;;;;;10.02;68.52;99649.63;1046609;28;20489;-83
2021/05/22 01:06:56;;;;;;;5.78;2.75;;;;;;;10.08;68.12;99660.78;1047883;28;20114;-81
2021/05/22 01:07:28;;;;;;;5.07;2.53;;;;;;;10.10;68.02;99658.22;1040643;28;20058;-82
2021/05/22 01:08:13;;;;;;;13.60;2.55;;;;;;;10.05;68.91;99660.81;1039571;28;20050;-82
2021/05/22 01:08:47;;;;;;;7.50;2.38;;;;;;;10.02;68.53;99653.06;1042820;28;20053;-82
2021/05/22 01:09:21;;;;;;;12.15;3.03;;;;;;;10.05;68.71;99647.03;1043046;28;20049;-82
2021/05/22 01:09:56;;;;;;;4.70;2.55;;;;;;;10.04;68.41;99656.53;1047562;28;20051;-81
2021/05/22 01:10:28;;;;;;;5.55;1.80;;;;;;;10.00;68.99;99651.38;1044595;28;20049;-82
2021/05/22 01:11:24;;;;;;;7.53;2.55;;;;;;;9.99;68.69;99653.09;1044491;28;20056;-82
2021/05/22 01:11:58;;;;;;;8.82;2.50;;;;;;;9.98;69.11;99642.72;1048774;28;20060;-81
2021/05/22 01:12:46;;;;;;;7.97;1.92;;;;;;;10.00;68.59;99664.28;1045452;28;20056;-85
2021/05/22 01:13:19;;;;;;;8.48;1.85;;;;;;;10.02;68.18;99657.38;1040543;28;20060;-81
2021/05/22 01:13:58;;;;;;;6.80;2.10;;;;;;;10.01;67.97;99661.69;1040688;28;20468;-82
2021/05/22 01:14:53;;;;;;;6.38;1.75;;;;;;;10.03;67.53;99653.91;1040198;28;20191;-82
2021/05/22 01:15:26;;;;;;;4.95;1.83;;;;;;;10.05;67.74;99658.25;1040943;28;20053;-82
2021/05/22 01:15:58;;;;;;;8.65;2.55;;;;;;;10.02;67.40;99658.22;1042921;28;20057;-83
2021/05/22 01:16:31;;;;;;;11.35;2.33;;;;;;;10.03;67.88;99653.91;1044525;28;20412;-79
2021/05/22 01:17:06;;;;;;;12.70;2.75;;;;;;;9.99;67.92;99652.22;1044501;28;20041;-81
2021/05/22 01:17:41;;;;;;;3.70;2.08;;;;;;;10.00;67.84;99653.94;1040610;28;20054;-81
2021/05/22 01:18:13;;;;;;;5.88;1.65;;;;;;;10.03;68.07;99656.50;1042129;28;20049;-82
2021/05/22 01:18:45;;;;;;;12.32;3.22;;;;;;;10.02;67.77;99649.63;1040551;28;20049;-81
2021/05/22 01:19:38;;;;;;;12.60;2.90;;;;;;;10.06;67.44;99646.19;1041439;28;20045;-82
2021/05/22 01:20:38;;;;;;;9.38;3.00;;;;;;;10.03;67.87;99647.03;1043981;28;20423;-82
2021/05/22 01:21:12;;;;;;;8.57;1.95;;;;;;;10.01;68.03;99651.34;1042663;28;20124;-81
2021/05/22 01:21:45;;;;;;;8.38;2.17;;;;;;;10.00;68.39;99646.19;1041016;28;20049;-81
2021/05/22 01:22:20;;;;;;;8.38;2.30;;;;;;;10.00;68.20;99648.78;1040517;28;20099;-83
2021/05/22 01:22:56;;;;;;;7.93;2.70;;;;;;;9.97;68.38;99641.03;1036407;28;20132;-81
2021/05/22 01:23:38;;;;;;;5.43;2.30;;;;;;;10.04;68.25;99637.53;1034037;28;20058;-82
2021/05/22 01:24:12;;;;;;;13.90;2.42;;;;;;;10.01;68.27;99642.75;1039514;28;20049;-82
2021/05/22 01:24:49;;;;;;;5.70;2.15;;;;;;;10.08;67.81;99642.72;1046984;28;20123;-81
2021/05/22 01:25:37;;;;;;;7.50;2.40;;;;;;;10.07;68.04;99643.59;1051917;28;20050;-82
2021/05/22 01:26:10;;;;;;;7.70;2.08;;;;;;;10.06;68.39;99647.03;1053274;28;20052;-82
2021/05/22 01:26:43;;;;;;;6.88;2.53;;;;;;;10.01;67.85;99633.25;1047669;28;20056;-82
2021/05/22 01:27:17;;;;;;;8.27;3.05;;;;;;;9.98;67.86;99624.66;1042047;28;20056;-82
2021/05/22 01:27:50;;;;;;;7.63;2.47;;;;;;;9.97;68.16;99622.94;1040308;28;20053;-84
2021/05/22 01:28:21;;;;;;;6.60;2.50;;;;;;;9.97;68.50;99630.69;1041401;28;20061;-81
2021/05/22 01:28:57;;;;;;;8.13;2.88;;;;;;;10.00;68.02;99647.06;1040531;28;20390;-82
2021/05/22 01:29:30;;;;;;;8.38;2.28;;;;;;;10.04;67.98;99632.38;1036426;28;20061;-81
2021/05/22 01:30:04;;;;;;;9.15;2.60;;;;;;;10.02;67.93;99632.41;1037818;28;20139;-82
2021/05/22 01:30:37;;;;;;;10.70;2.38;;;;;;;10.07;67.81;99641.00;1044363;28;20049;-81
2021/05/22 01:31:09;;;;;;;9.27;2.03;;;;;;;10.04;68.32;99641.03;1045736;28;20446;-83
2021/05/22 01:31:41;;;;;;;8.20;2.28;;;;;;;10.05;67.99;99636.72;1048873;28;20044;-81
2021/05/22 01:32:12;;;;;;;8.48;2.78;;;;;;;10.05;68.25;99649.63;1044474;28;20048;-82
2021/05/22 01:32:45;;;;;;;8.30;2.70;;;;;;;10.05;67.89;99631.53;1045488;28;20454;-81
2021/05/22 01:33:19;;;;;;;8.65;2.35;;;;;;;10.06;67.76;99641.00;1040529;28;20051;-81
2021/05/22 01:33:51;;;;;;;8.88;2.40;;;;;;;10.04;68.44;99643.59;1041269;28;20049;-79
2021/05/22 01:34:23;;;;;;;8.07;2.67;;;;;;;10.02;68.50;99641.88;1044522;28;20390;-81
2021/05/22 01:34:55;;;;;;;5.68;2.40;;;;;;;10.03;67.85;99636.69;1040188;28;20045;-83
2021/05/22 01:35:27;;;;;;;7.70;2.40;;;;;;;10.06;67.39;99631.53;1040589;28;20057;-82
2021/05/22 01:35:59;;;;;;;5.15;2.10;;;;;;;10.08;67.52;99637.53;1041256;28;20049;-82
2021/05/22 01:36:30;;;;;;;4.50;1.85;;;;;;;10.05;68.26;99647.91;1045120;28;20064;-83
2021/05/22 01:37:02;;;;;;;8.65;2.55;;;;;;;10.02;68.40;99640.16;1048656;28;20540;-81
2021/05/22 01:37:36;;;;;;;6.85;2.25;;;;;;;10.01;68.87;99643.59;1048166;28;20048;-81
2021/05/22 01:38:08;;;;;;;7.90;1.92;;;;;;;10.01;67.93;99643.59;1045040;28;20051;-81
2021/05/22 01:38:40;;;;;;;6.43;1.77;;;;;;;10.05;67.56;99650.50;1044347;28;20064;-81
2021/05/22 01:39:14;;;;;;;8.30;2.58;;;;;;;10.03;67.88;99643.59;1045637;28;20053;-80
2021/05/22 01:39:45;;;;;;;5.80;1.73;;;;;;;9.94;67.96;99641.03;1044230;28;20053;-81
2021/05/22 01:40:17;;;;;;;5.85;2.17;;;;;;;9.98;67.41;99629.81;1040451;28;20055;-82
2021/05/22 01:40:51;;;;;;;5.38;1.83;;;;;;;9.97;68.08;99646.19;1040353;28;20552;-80
2021/05/22 01:41:22;;;;;;;10.00;2.97;;;;;;;10.02;67.68;99650.47;1037086;28;20050;-83
2021/05/22 01:41:54;;;;;;;11.00;2.53;;;;;;;9.96;67.84;99641.88;1041264;28;20539;-80
2021/05/22 01:42:26;;;;;;;5.60;2.10;;;;;;;9.96;67.91;99641.88;1044471;28;20088;-81
2021/05/22 01:42:58;;;;;;;8.32;2.45;;;;;;;9.97;68.43;99633.28;1045127;28;20036;-80
2021/05/22 01:43:30;;;;;;;7.05;2.25;;;;;;;9.94;68.38;99628.13;1045793;28;20080;-81
2021/05/22 01:44:07;;;;;;;3.97;1.80;;;;;;;9.96;68.01;99639.31;1048699;28;20051;-80
2021/05/22 01:44:42;;;;;;;8.00;2.20;;;;;;;9.96;67.78;99634.13;1048544;28;20053;-81
2021/05/22 01:45:19;;;;;;;11.02;2.05;;;;;;;9.95;67.83;99646.19;1044473;28;20501;-81
2021/05/22 01:45:53;;;;;;;5.93;2.08;;;;;;;9.94;67.92;99636.72;1040479;28;20060;-81
2021/05/22 01:46:26;;;;;;;5.38;1.67;;;;;;;9.94;67.83;99643.63;1041539;28;20105;-82
2021/05/22 01:46:59;;;;;;;7.07;2.33;;;;;;;9.98;68.01;99647.91;1041024;28;20081;-81
2021/05/22 01:47:35;;;;;;;4.97;1.80;;;;;;;9.93;68.19;99641.91;1041703;28;20534;-82
2021/05/22 01:48:11;;;;;;;7.63;2.97;;;;;;;9.93;67.71;99629.00;1040399;28;20057;-82
2021/05/22 01:48:44;;;;;;;7.10;2.30;;;;;;;9.94;67.38;99633.28;1038161;28;20050;-83
2021/05/22 01:49:20;;;;;;;8.60;2.60;;;;;;;9.97;67.49;99641.03;1042345;28;20168;-83
2021/05/22 01:49:52;;;;;;;5.78;2.17;;;;;;;9.96;67.92;99637.56;1042069;28;20053;-82
2021/05/22 01:50:26;;;;;;;5.57;2.00;;;;;;;9.92;67.69;99633.28;1045810;28;20049;-80
2021/05/22 01:51:05;;;;;;;10.68;1.98;;;;;;;9.92;68.00;99635.84;1048589;28;20048;-81
2021/05/22 01:51:38;;;;;;;4.10;1.83;;;;;;;9.89;68.28;99633.28;1046106;28;20044;-82
2021/05/22 01:52:10;;;;;;;5.88;1.98;;;;;;;9.96;67.66;99634.13;1048511;28;20055;-82
2021/05/22 01:52:44;;;;;;;8.90;2.50;;;;;;;9.97;67.61;99633.28;1048582;28;20528;-84
2021/05/22 01:53:18;;;;;;;7.25;2.20;;;;;;;9.98;67.96;99641.03;1044229;28;20186;-83
2021/05/22 01:53:50;;;;;;;5.18;1.77;;;;;;;9.98;67.66;99641.03;1041369;28;20052;-83
2021/05/22 01:54:23;;;;;;;6.22;2.45;;;;;;;9.97;68.61;99639.28;1040300;28;20159;-84
2021/05/22 01:54:55;;;;;;;5.57;2.03;;;;;;;9.93;68.76;99634.16;1040270;28;20076;-82
2021/05/22 01:55:30;;;;;;;11.57;2.10;;;;;;;9.97;68.52;99644.47;1040196;28;20057;-84
2021/05/22 01:56:02;;;;;;;6.28;2.38;;;;;;;9.92;68.50;99632.41;1040461;28;20409;-81
2021/05/22 01:56:35;;;;;;;6.70;2.40;;;;;;;9.93;68.39;99631.56;1038985;28;20517;-81
2021/05/22 01:57:07;;;;;;;8.48;2.88;;;;;;;9.96;68.92;99639.31;1040253;28;20054;-80
2021/05/22 01:57:40;;;;;;;4.75;2.17;;;;;;;9.90;68.95;99631.56;1040991;28;20132;-83
2021/05/22 01:58:12;;;;;;;7.25;2.58;;;;;;;9.93;69.08;99636.75;1041105;28;20053;-81
2021/05/22 01:58:48;;;;;;;7.03;2.50;;;;;;;9.90;69.24;99637.59;1044368;28;20103;-81
2021/05/22 01:59:19;;;;;;;4.10;1.90;;;;;;;9.89;69.28;99648.78;1044377;28;20063;-83
2021/05/22 01:59:51;;;;;;;5.68;2.60;;;;;;;9.94;69.05;99641.03;1043043;28;20416;-82
2021/05/22 02:00:23;;;;;;;6.18;2.00;;;;;;;9.94;68.40;99622.97;1044598;28;20055;-85
2021/05/22 02:00:55;;;;;;;7.97;2.05;;;;;;;9.93;68.94;99640.19;1045123;28;20151;-83
2021/05/22 02:01:27;;;;;;;2.20;1.75;;;;;;;9.96;68.39;99635.00;1044330;28;20048;-81
2021/05/22 02:01:58;;;;;;;5.35;2.42;;;;;;;9.94;68.80;99641.91;1040303;28;20136;-82
2021/05/22 02:02:30;;;;;;;8.90;2.38;;;;;;;9.96;68.60;99640.16;1040493;28;20049;-82
2021/05/22 02:03:12;;;;;;;10.45;2.83;;;;;;;9.93;69.00;99632.44;1040166;28;20256;-83
2021/05/22 02:03:48;;;;;;;5.35;2.40;;;;;;;9.90;68.96;99635.00;1038133;28;20164;-82
2021/05/22 02:04:24;;;;;;;9.35;2.92;;;;;;;9.91;69.53;99630.69;1036226;28;20057;-82
2021/05/22 02:04:59;;;;;;;6.22;2.38;;;;;;;9.90;69.17;99619.50;1039360;28;20131;-82
2021/05/22 02:05:32;;;;;;;7.03;2.35;;;;;;;9.88;69.06;99628.16;1042476;28;20103;-83
2021/05/22 02:06:15;;;;;;;5.03;2.20;;;;;;;9.89;69.33;99617.81;1046451;28;20122;-81
2021/05/22 02:06:50;;;;;;;5.65;2.47;;;;;;;9.90;69.59;99632.44;1047766;28;20048;-81
2021/05/22 02:07:23;;;;;;;9.20;2.15;;;;;;;9.89;69.67;99632.44;1040124;28;20493;-82
2021/05/22 02:07:56;;;;;;;8.48;2.45;;;;;;;9.90;69.82;99634.16;1042168;28;20049;-82
2021/05/22 02:08:32;;;;;;;3.42;1.95;;;;;;;9.89;69.51;99635.03;1045753;28;20060;-82
2021/05/22 02:09:07;;;;;;;7.07;2.03;;;;;;;9.87;69.25;99626.41;1048475;28;20052;-82
2021/05/22 02:09:39;;;;;;;7.63;2.30;;;;;;;9.90;69.36;99634.16;1044314;28;20049;-80
2021/05/22 02:10:11;;;;;;;7.78;2.13;;;;;;;9.87;69.42;99632.44;1044218;28;20153;-83
2021/05/22 02:10:45;;;;;;;3.80;1.70;;;;;;;9.89;69.12;99627.28;1045419;28;20064;-83
2021/05/22 02:11:17;;;;;;;7.72;2.10;;;;;;;9.88;69.21;99631.59;1041117;28;20421;-80
2021/05/22 02:11:52;;;;;;;6.93;2.13;;;;;;;9.89;69.44;99638.47;1040191;28;20059;-81
2021/05/22 02:12:25;;;;;;;5.03;2.17;;;;;;;9.90;69.14;99618.66;1036086;28;20074;-82
2021/05/22 02:12:59;;;;;;;6.65;2.53;;;;;;;9.89;69.82;99616.94;1037251;28;20519;-81
2021/05/22 02:13:30;;;;;;;6.82;2.58;;;;;;;9.94;69.10;99639.31;1037484;28;20080;-82
2021/05/22 02:14:06;;;;;;;7.47;2.30;;;;;;;9.91;69.65;99641.03;1041319;28;20045;-83
2021/05/22 02:14:39;;;;;;;3.80;2.45;;;;;;;9.92;68.68;99629.84;1044571;28;20053;-83
2021/05/22 02:15:13;;;;;;;6.00;2.13;;;;;;;9.92;69.10;99629.84;1045490;28;20048;-82
2021/05/22 02:15:53;;;;;;;9.70;3.00;;;;;;;9.92;69.29;99637.59;1044182;28;20044;-82
2021/05/22 02:16:29;;;;;;;5.88;2.47;;;;;;;9.92;70.07;99629.84;1040146;28;20060;-81
2021/05/22 02:17:06;;;;;;;5.60;2.33;;;;;;;9.91;69.37;99625.53;1040340;28;20061;-80
2021/05/22 02:17:39;;;;;;;7.45;1.90;;;;;;;9.92;69.84;99630.69;1037811;28;20161;-82
2021/05/22 02:18:12;;;;;;;7.53;2.33;;;;;;;9.92;69.46;99630.69;1037970;28;20056;-81
2021/05/22 02:18:45;;;;;;;3.90;1.92;;;;;;;9.92;69.82;99628.09;1037676;28;20060;-81
2021/05/22 02:19:19;;;;;;;10.00;2.83;;;;;;;9.89;69.58;99627.28;1037116;28;20042;-83
2021/05/22 02:19:53;;;;;;;7.00;2.63;;;;;;;9.91;69.94;99628.13;1041248;28;20119;-81
2021/05/22 02:20:26;;;;;;;7.80;2.85;;;;;;;9.90;70.32;99627.25;1041389;28;20061;-83
2021/05/22 02:21:00;;;;;;;6.30;2.30;;;;;;;9.93;69.90;99634.16;1041505;28;20057;-81
2021/05/22 02:21:32;;;;;;;6.28;2.17;;;;;;;9.90;69.71;99626.41;1044518;28;20132;-82
2021/05/22 02:22:10;;;;;;;7.75;2.55;;;;;;;9.88;69.47;99623.84;1044410;28;20047;-80
2021/05/22 02:22:44;;;;;;;7.97;2.20;;;;;;;9.91;69.79;99633.28;1037798;28;20052;-82
2021/05/22 02:23:17;;;;;;;4.75;2.30;;;;;;;9.91;69.64;99628.13;1037886;28;20050;-83
2021/05/22 02:23:50;;;;;;;6.20;2.22;;;;;;;9.87;69.81;99635.03;1036431;28;20425;-83
2021/05/22 02:24:25;;;;;;;5.60;2.05;;;;;;;9.88;68.98;99634.16;1037205;28;20092;-80
2021/05/22 02:24:57;;;;;;;4.47;1.80;;;;;;;9.83;69.62;99634.16;1037503;28;20134;-81
2021/05/22 02:25:29;;;;;;;7.20;2.83;;;;;;;9.86;69.28;99633.28;1036438;28;20050;-80
2021/05/22 02:26:01;;;;;;;4.57;1.77;;;;;;;9.90;69.33;99621.25;1037271;28;20356;-83
2021/05/22 02:26:32;;;;;;;5.13;1.75;;;;;;;9.88;69.63;99636.75;1036090;28;20064;-81
2021/05/22 02:27:08;;;;;;;6.05;2.13;;;;;;;9.86;69.61;99630.72;1037049;28;20057;-81
2021/05/22 02:27:40;;;;;;;8.48;1.92;;;;;;;9.83;69.88;99633.31;1038429;28;20382;-81
2021/05/22 02:28:12;;;;;;;4.15;1.95;;;;;;;9.83;69.79;99631.59;1037285;28;20046;-83
2021/05/22 02:28:44;;;;;;;6.53;2.03;;;;;;;9.81;70.01;99632.44;1042112;28;20494;-83
2021/05/22 02:29:19;;;;;;;5.68;1.88;;;;;;;9.82;69.95;99621.25;1045057;28;20060;-81
2021/05/22 02:29:51;;;;;;;7.07;2.42;;;;;;;9.83;69.69;99634.16;1044356;28;20053;-80
2021/05/22 02:30:23;;;;;;;5.82;2.55;;;;;;;9.87;69.96;99629.88;1044429;28;20071;-83
2021/05/22 02:30:56;;;;;;;5.93;2.67;;;;;;;9.87;69.82;99621.22;1040066;28;20077;-81
2021/05/22 02:31:30;;;;;;;9.00;2.63;;;;;;;9.83;70.45;99636.75;1040205;28;20529;-81
2021/05/22 02:32:05;;;;;;;4.38;2.55;;;;;;;9.81;69.90;99628.16;1037230;28;20054;-80
2021/05/22 02:32:40;;;;;;;6.45;1.95;;;;;;;9.80;70.00;99626.41;1041429;28;20417;-80
2021/05/22 02:33:14;;;;;;;5.30;2.28;;;;;;;9.83;69.74;99625.56;1045926;28;20412;-80
2021/05/22 02:33:46;;;;;;;5.40;1.92;;;;;;;9.83;69.91;99629.00;1048005;28;20131;-81
2021/05/22 02:34:22;;;;;;;9.40;2.33;;;;;;;9.85;69.85;99628.13;1044161;28;20057;-81
2021/05/22 02:34:57;;;;;;;5.90;1.85;;;;;;;9.85;70.15;99620.38;1040314;28;20128;-83
2021/05/22 02:35:30;;;;;;;4.30;2.03;;;;;;;9.82;70.20;99629.88;1041099;28;20572;-81
2021/05/22 02:36:02;;;;;;;5.35;1.85;;;;;;;9.82;70.80;99631.59;1044215;28;20397;-82
2021/05/22 02:36:36;;;;;;;11.57;2.33;;;;;;;9.85;70.19;99623.81;1041301;28;20112;-84
2021/05/22 02:37:08;;;;;;;7.45;2.55;;;;;;;9.84;69.68;99619.53;1040041;28;20050;-82
2021/05/22 02:37:40;;;;;;;5.22;2.30;;;;;;;9.81;70.32;99620.41;1036100;28;20482;-83
2021/05/22 02:38:18;;;;;;;3.85;1.63;;;;;;;9.78;70.82;99630.72;1038951;28;20046;-82
2021/05/22 02:38:51;;;;;;;4.47;2.13;;;;;;;9.79;70.51;99634.16;1041489;28;20111;-80